VIV9035 MMVR-MMRX
Flight info
| Callsign | VIV9035 |
|---|---|
| Flight time | N/A |
| Altitude | 34000 |
| Route | MMVR/01 N0444F340 AXORO2 AXORO UT61 TAM UJ53 REX DCT MMRX/13 |
| Aircraft | A320/M-VGDW/C |
Departure
| Time | 2026-05-05 12:38 |
|---|---|
| Airport | General Heriberto Jara International Airport (MMVR) |
Arrival
| Time | N/A |
|---|---|
| Airport | General Lucio Blanco International Airport (MMRX) |
| Time | Latitude | Longitude | Altitude | Speed | Heading |
|---|---|---|---|---|---|
| 2026-05-05 12:29 | 19.14303 | -96.18411 | 89 ft | 0 kts | 101° |
| 2026-05-05 12:30 | 19.14303 | -96.18412 | 89 ft | 1 kts | 101° |
| 2026-05-05 12:30 | 19.14307 | -96.18427 | 89 ft | 2 kts | 102° |
| 2026-05-05 12:30 | 19.14309 | -96.18443 | 90 ft | 2 kts | 102° |
| 2026-05-05 12:31 | 19.14313 | -96.18459 | 90 ft | 2 kts | 102° |
| 2026-05-05 12:31 | 19.14317 | -96.18474 | 90 ft | 2 kts | 125° |
| 2026-05-05 12:31 | 19.14328 | -96.18484 | 90 ft | 2 kts | 156° |
| 2026-05-05 12:31 | 19.14343 | -96.18488 | 90 ft | 1 kts | 187° |
| 2026-05-05 12:32 | 19.14349 | -96.18486 | 90 ft | 1 kts | 198° |
| 2026-05-05 12:32 | 19.14352 | -96.18485 | 90 ft | 0 kts | 194° |
| 2026-05-05 12:33 | 19.14307 | -96.18497 | 91 ft | 11 kts | 187° |
| 2026-05-05 12:34 | 19.14217 | -96.18516 | 91 ft | 14 kts | 216° |
| 2026-05-05 12:34 | 19.14191 | -96.18623 | 93 ft | 16 kts | 236° |
| 2026-05-05 12:34 | 19.14104 | -96.18708 | 94 ft | 18 kts | 221° |
| 2026-05-05 12:34 | 19.14002 | -96.18808 | 97 ft | 20 kts | 224° |
| 2026-05-05 12:35 | 19.13875 | -96.18882 | 97 ft | 22 kts | 191° |
| 2026-05-05 12:35 | 19.13718 | -96.18915 | 101 ft | 23 kts | 191° |
| 2026-05-05 12:35 | 19.13558 | -96.18948 | 105 ft | 23 kts | 191° |
| 2026-05-05 12:35 | 19.13392 | -96.18984 | 106 ft | 25 kts | 191° |
| 2026-05-05 12:36 | 19.13215 | -96.19020 | 104 ft | 26 kts | 190° |
| 2026-05-05 12:36 | 19.13036 | -96.19056 | 102 ft | 25 kts | 192° |
| 2026-05-05 12:36 | 19.12897 | -96.19043 | 99 ft | 17 kts | 153° |
| 2026-05-05 12:36 | 19.12880 | -96.19084 | 100 ft | 11 kts | 348° |
| 2026-05-05 12:37 | 19.12957 | -96.19072 | 101 ft | 14 kts | 11° |
| 2026-05-05 12:37 | 19.13299 | -96.19001 | 106 ft | 85 kts | 11° |
| 2026-05-05 12:37 | 19.14111 | -96.18832 | 96 ft | 147 kts | 11° |
| 2026-05-05 12:37 | 19.15236 | -96.18598 | 331 ft | 173 kts | 11° |
| 2026-05-05 12:38 | 19.16395 | -96.18354 | 1007 ft | 169 kts | 12° |
| 2026-05-05 12:38 | 19.17538 | -96.18108 | 1555 ft | 167 kts | 13° |
| 2026-05-05 12:38 | 19.18704 | -96.17853 | 1973 ft | 173 kts | 13° |
| 2026-05-05 12:38 | 19.19937 | -96.17603 | 2316 ft | 187 kts | 11° |
| 2026-05-05 12:39 | 19.21272 | -96.17358 | 2637 ft | 203 kts | 12° |
| 2026-05-05 12:39 | 19.22718 | -96.17085 | 2971 ft | 219 kts | 12° |
| 2026-05-05 12:39 | 19.24266 | -96.16787 | 3314 ft | 235 kts | 12° |
| 2026-05-05 12:39 | 19.25972 | -96.16451 | 3621 ft | 256 kts | 12° |
| 2026-05-05 12:40 | 19.27750 | -96.16299 | 4209 ft | 264 kts | 350° |
| 2026-05-05 12:40 | 19.29441 | -96.17114 | 4656 ft | 275 kts | 315° |
| 2026-05-05 12:40 | 19.30444 | -96.18829 | 5224 ft | 276 kts | 282° |
| 2026-05-05 12:40 | 19.30664 | -96.20801 | 5857 ft | 276 kts | 266° |
| 2026-05-05 12:41 | 19.30476 | -96.22839 | 6454 ft | 279 kts | 260° |
| 2026-05-05 12:41 | 19.30353 | -96.24888 | 7029 ft | 285 kts | 275° |
| 2026-05-05 12:41 | 19.30952 | -96.26897 | 7619 ft | 289 kts | 302° |
| 2026-05-05 12:41 | 19.32342 | -96.28406 | 8194 ft | 291 kts | 329° |
| 2026-05-05 12:42 | 19.34148 | -96.29374 | 8780 ft | 293 kts | 334° |
| 2026-05-05 12:42 | 19.35987 | -96.30320 | 9326 ft | 296 kts | 334° |
| 2026-05-05 12:42 | 19.37861 | -96.31296 | 9908 ft | 297 kts | 334° |
| 2026-05-05 12:42 | 19.39706 | -96.32265 | 10443 ft | 300 kts | 334° |
| 2026-05-05 12:43 | 19.41629 | -96.33279 | 10700 ft | 314 kts | 334° |
| 2026-05-05 12:43 | 19.43637 | -96.34338 | 10929 ft | 328 kts | 334° |
| 2026-05-05 12:43 | 19.45730 | -96.35446 | 11168 ft | 341 kts | 334° |
| 2026-05-05 12:43 | 19.47896 | -96.36593 | 11437 ft | 353 kts | 334° |
| 2026-05-05 12:44 | 19.50092 | -96.37756 | 11884 ft | 356 kts | 334° |
| 2026-05-05 12:44 | 19.52321 | -96.38937 | 12457 ft | 357 kts | 335° |
| 2026-05-05 12:44 | 19.54555 | -96.40116 | 13012 ft | 359 kts | 335° |
| 2026-05-05 12:44 | 19.56782 | -96.41292 | 13513 ft | 360 kts | 335° |
| 2026-05-05 12:45 | 19.59041 | -96.42486 | 14015 ft | 363 kts | 335° |
| 2026-05-05 12:45 | 19.61325 | -96.43694 | 14486 ft | 366 kts | 335° |
| 2026-05-05 12:45 | 19.63601 | -96.44900 | 14929 ft | 369 kts | 335° |
| 2026-05-05 12:45 | 19.65899 | -96.46119 | 15359 ft | 372 kts | 335° |
| 2026-05-05 12:46 | 19.68227 | -96.47355 | 15796 ft | 375 kts | 335° |
| 2026-05-05 12:46 | 19.70572 | -96.48599 | 16237 ft | 378 kts | 335° |
| 2026-05-05 12:46 | 19.72947 | -96.49860 | 16666 ft | 381 kts | 336° |
| 2026-05-05 12:46 | 19.75325 | -96.51124 | 17097 ft | 384 kts | 336° |
| 2026-05-05 12:47 | 19.77715 | -96.52395 | 17499 ft | 386 kts | 336° |
| 2026-05-05 12:47 | 19.80142 | -96.53685 | 17911 ft | 389 kts | 336° |
| 2026-05-05 12:47 | 19.82560 | -96.54970 | 18318 ft | 392 kts | 336° |
| 2026-05-05 12:47 | 19.85005 | -96.56272 | 18710 ft | 394 kts | 336° |
| 2026-05-05 12:48 | 19.87470 | -96.57584 | 19117 ft | 396 kts | 335° |
| 2026-05-05 12:48 | 19.89951 | -96.58903 | 19497 ft | 398 kts | 335° |
| 2026-05-05 12:48 | 19.92410 | -96.60207 | 19852 ft | 401 kts | 335° |
| 2026-05-05 12:48 | 19.94925 | -96.61545 | 20221 ft | 403 kts | 335° |
| 2026-05-05 12:49 | 19.97462 | -96.62895 | 20590 ft | 405 kts | 335° |
| 2026-05-05 12:49 | 19.99982 | -96.64238 | 20936 ft | 407 kts | 335° |
| 2026-05-05 12:49 | 20.02514 | -96.65591 | 21276 ft | 410 kts | 335° |
| 2026-05-05 12:49 | 20.05067 | -96.66969 | 21619 ft | 412 kts | 334° |
| 2026-05-05 12:50 | 20.06782 | -96.67893 | 21843 ft | 413 kts | 334° |
| 2026-05-05 12:50 | 20.10226 | -96.69746 | 22290 ft | 416 kts | 334° |
| 2026-05-05 12:50 | 20.12807 | -96.71124 | 22636 ft | 417 kts | 334° |
| 2026-05-05 12:50 | 20.15422 | -96.72516 | 22994 ft | 419 kts | 334° |
| 2026-05-05 12:51 | 20.18032 | -96.73907 | 23358 ft | 420 kts | 334° |
| 2026-05-05 12:51 | 20.20633 | -96.75290 | 23699 ft | 422 kts | 334° |
| 2026-05-05 12:51 | 20.23292 | -96.76681 | 24062 ft | 423 kts | 334° |
| 2026-05-05 12:51 | 20.25946 | -96.78069 | 24414 ft | 424 kts | 334° |
| 2026-05-05 12:52 | 20.28567 | -96.79440 | 24752 ft | 425 kts | 334° |
| 2026-05-05 12:52 | 20.31253 | -96.80847 | 25070 ft | 427 kts | 334° |
| 2026-05-05 12:52 | 20.33922 | -96.82247 | 25381 ft | 428 kts | 334° |
| 2026-05-05 12:52 | 20.36600 | -96.83654 | 25708 ft | 429 kts | 334° |
| 2026-05-05 12:53 | 20.39267 | -96.85055 | 26031 ft | 430 kts | 334° |
| 2026-05-05 12:53 | 20.41986 | -96.86485 | 26332 ft | 432 kts | 334° |
| 2026-05-05 12:53 | 20.44664 | -96.87894 | 26639 ft | 433 kts | 334° |
| 2026-05-05 12:53 | 20.47386 | -96.89327 | 26923 ft | 434 kts | 333° |
| 2026-05-05 12:54 | 20.52841 | -96.92201 | 27481 ft | 437 kts | 333° |
| 2026-05-05 12:54 | 20.55567 | -96.93638 | 27770 ft | 438 kts | 333° |
| 2026-05-05 12:54 | 20.58292 | -96.95074 | 28149 ft | 436 kts | 333° |
| 2026-05-05 12:55 | 20.61007 | -96.96507 | 28556 ft | 434 kts | 333° |
| 2026-05-05 12:55 | 20.63689 | -96.97922 | 28939 ft | 432 kts | 333° |
| 2026-05-05 12:55 | 20.66419 | -96.99363 | 29301 ft | 432 kts | 333° |
| 2026-05-05 12:55 | 20.69105 | -97.00782 | 29636 ft | 431 kts | 333° |
| 2026-05-05 12:56 | 20.71793 | -97.02202 | 29951 ft | 431 kts | 333° |
| 2026-05-05 12:56 | 20.74470 | -97.03618 | 30232 ft | 432 kts | 333° |
| 2026-05-05 12:56 | 20.77185 | -97.05053 | 30528 ft | 432 kts | 333° |
| 2026-05-05 12:56 | 20.79863 | -97.06470 | 30817 ft | 432 kts | 333° |
| 2026-05-05 12:57 | 20.82587 | -97.07911 | 31111 ft | 433 kts | 333° |
| 2026-05-05 12:57 | 20.85270 | -97.09331 | 31428 ft | 432 kts | 333° |
| 2026-05-05 12:57 | 20.87958 | -97.10754 | 31719 ft | 432 kts | 333° |
| 2026-05-05 12:57 | 20.90642 | -97.12177 | 31986 ft | 432 kts | 333° |
| 2026-05-05 12:58 | 20.93369 | -97.13622 | 32238 ft | 432 kts | 333° |
| 2026-05-05 12:58 | 20.96074 | -97.15057 | 32483 ft | 433 kts | 333° |
| 2026-05-05 12:58 | 20.98776 | -97.16489 | 32732 ft | 433 kts | 332° |
| 2026-05-05 12:58 | 21.01454 | -97.17910 | 32988 ft | 433 kts | 332° |
| 2026-05-05 12:59 | 21.04174 | -97.19356 | 33272 ft | 432 kts | 332° |
| 2026-05-05 12:59 | 21.06865 | -97.20786 | 33545 ft | 431 kts | 332° |
| 2026-05-05 12:59 | 21.09539 | -97.22207 | 33827 ft | 430 kts | 332° |
| 2026-05-05 13:00 | 21.14896 | -97.25044 | 33957 ft | 429 kts | 332° |
| 2026-05-05 13:00 | 21.17577 | -97.26464 | 33962 ft | 429 kts | 332° |
| 2026-05-05 13:01 | 21.28325 | -97.32178 | 33971 ft | 429 kts | 332° |
| 2026-05-05 13:01 | 21.33641 | -97.35012 | 33971 ft | 428 kts | 332° |
| 2026-05-05 13:02 | 21.38982 | -97.37862 | 33970 ft | 428 kts | 332° |
| 2026-05-05 13:02 | 21.44300 | -97.40703 | 33972 ft | 427 kts | 332° |
| 2026-05-05 13:03 | 21.49662 | -97.43569 | 33972 ft | 427 kts | 332° |
| 2026-05-05 13:03 | 21.54949 | -97.46400 | 33973 ft | 427 kts | 332° |
| 2026-05-05 13:04 | 21.60283 | -97.49256 | 33972 ft | 426 kts | 332° |
| 2026-05-05 13:04 | 21.65581 | -97.52095 | 33976 ft | 426 kts | 332° |
| 2026-05-05 13:05 | 21.70876 | -97.54938 | 33977 ft | 425 kts | 332° |
| 2026-05-05 13:05 | 21.76198 | -97.57797 | 33978 ft | 425 kts | 332° |
| 2026-05-05 13:06 | 21.81468 | -97.60632 | 33980 ft | 424 kts | 332° |
| 2026-05-05 13:06 | 21.86774 | -97.63491 | 33980 ft | 424 kts | 332° |
| 2026-05-05 13:07 | 21.92032 | -97.66330 | 33979 ft | 424 kts | 331° |
| 2026-05-05 13:07 | 21.97321 | -97.69193 | 33982 ft | 424 kts | 331° |
| 2026-05-05 13:08 | 22.02567 | -97.72024 | 33982 ft | 423 kts | 331° |
| 2026-05-05 13:08 | 22.07847 | -97.74873 | 33982 ft | 423 kts | 331° |
| 2026-05-05 13:09 | 22.13143 | -97.77724 | 33982 ft | 423 kts | 331° |
| 2026-05-05 13:09 | 22.18385 | -97.80545 | 33987 ft | 422 kts | 331° |
| 2026-05-05 13:10 | 22.23707 | -97.83287 | 33983 ft | 423 kts | 335° |
| 2026-05-05 13:10 | 22.29302 | -97.85401 | 33986 ft | 425 kts | 341° |
| 2026-05-05 13:11 | 22.35082 | -97.86763 | 33983 ft | 428 kts | 348° |
| 2026-05-05 13:11 | 22.41000 | -97.87457 | 33988 ft | 429 kts | 352° |
| 2026-05-05 13:12 | 22.46951 | -97.88020 | 33986 ft | 429 kts | 352° |
| 2026-05-05 13:12 | 22.52938 | -97.88590 | 33986 ft | 429 kts | 352° |
| 2026-05-05 13:13 | 22.58873 | -97.89162 | 33983 ft | 429 kts | 352° |
| 2026-05-05 13:13 | 22.64814 | -97.89736 | 33986 ft | 428 kts | 352° |
| 2026-05-05 13:14 | 22.70769 | -97.90311 | 33981 ft | 428 kts | 351° |
| 2026-05-05 13:14 | 22.76714 | -97.90885 | 33982 ft | 428 kts | 351° |
| 2026-05-05 13:15 | 22.82684 | -97.91464 | 33989 ft | 428 kts | 351° |
| 2026-05-05 13:15 | 22.88599 | -97.92038 | 33992 ft | 428 kts | 351° |
| 2026-05-05 13:16 | 22.94555 | -97.92617 | 34000 ft | 428 kts | 351° |
| 2026-05-05 13:16 | 23.00510 | -97.93197 | 34010 ft | 428 kts | 351° |
| 2026-05-05 13:17 | 23.06426 | -97.93774 | 34006 ft | 428 kts | 351° |
| 2026-05-05 13:17 | 23.12366 | -97.94353 | 34001 ft | 428 kts | 351° |
| 2026-05-05 13:18 | 23.18316 | -97.94930 | 33994 ft | 427 kts | 351° |
| 2026-05-05 13:18 | 23.24220 | -97.95506 | 33989 ft | 427 kts | 351° |
| 2026-05-05 13:19 | 23.30186 | -97.96085 | 33982 ft | 426 kts | 351° |
| 2026-05-05 13:19 | 23.36093 | -97.96662 | 33980 ft | 426 kts | 351° |
| 2026-05-05 13:20 | 23.41993 | -97.97239 | 33979 ft | 426 kts | 351° |
| 2026-05-05 13:20 | 23.47923 | -97.97820 | 33977 ft | 425 kts | 351° |
| 2026-05-05 13:21 | 23.53817 | -97.98399 | 33974 ft | 425 kts | 351° |
| 2026-05-05 13:21 | 23.59725 | -97.98979 | 33973 ft | 424 kts | 351° |
| 2026-05-05 13:22 | 23.65623 | -97.99559 | 33971 ft | 424 kts | 351° |
| 2026-05-05 13:22 | 23.71479 | -98.00136 | 33968 ft | 423 kts | 351° |
| 2026-05-05 13:23 | 23.77350 | -98.00714 | 33967 ft | 423 kts | 351° |
| 2026-05-05 13:23 | 23.83230 | -98.01294 | 33966 ft | 423 kts | 351° |
| 2026-05-05 13:24 | 23.89112 | -98.01874 | 33964 ft | 423 kts | 351° |
| 2026-05-05 13:24 | 23.94971 | -98.02454 | 33961 ft | 423 kts | 351° |
| 2026-05-05 13:25 | 24.00849 | -98.03035 | 33959 ft | 422 kts | 351° |
| 2026-05-05 13:25 | 24.06718 | -98.03617 | 33963 ft | 422 kts | 351° |
| 2026-05-05 13:26 | 24.12607 | -98.04199 | 33955 ft | 422 kts | 351° |
| 2026-05-05 13:26 | 24.18453 | -98.04775 | 33957 ft | 422 kts | 351° |
| 2026-05-05 13:27 | 24.24286 | -98.05353 | 33949 ft | 422 kts | 350° |
| 2026-05-05 13:27 | 24.30153 | -98.05934 | 33948 ft | 421 kts | 350° |
| 2026-05-05 13:28 | 24.36008 | -98.06514 | 33947 ft | 421 kts | 350° |
| 2026-05-05 13:28 | 24.41822 | -98.07095 | 33947 ft | 422 kts | 350° |
| 2026-05-05 13:29 | 24.47706 | -98.07680 | 33943 ft | 421 kts | 350° |
| 2026-05-05 13:29 | 24.53541 | -98.08265 | 33943 ft | 426 kts | 350° |
| 2026-05-05 13:30 | 24.59511 | -98.08864 | 33937 ft | 429 kts | 350° |
| 2026-05-05 13:30 | 24.65469 | -98.09460 | 33936 ft | 430 kts | 350° |
| 2026-05-05 13:31 | 24.71458 | -98.10060 | 33931 ft | 430 kts | 350° |
| 2026-05-05 13:31 | 24.77432 | -98.10661 | 33927 ft | 430 kts | 350° |
| 2026-05-05 13:32 | 24.83381 | -98.11260 | 33927 ft | 429 kts | 350° |
| 2026-05-05 13:32 | 24.89349 | -98.11861 | 33918 ft | 430 kts | 349° |
| 2026-05-05 13:33 | 24.95314 | -98.12461 | 33921 ft | 430 kts | 349° |
| 2026-05-05 13:33 | 25.01287 | -98.13054 | 33926 ft | 429 kts | 349° |
| 2026-05-05 13:34 | 25.07242 | -98.13647 | 33925 ft | 429 kts | 349° |
| 2026-05-05 13:34 | 25.13223 | -98.14245 | 33919 ft | 429 kts | 349° |
| 2026-05-05 13:35 | 25.19165 | -98.14838 | 33923 ft | 430 kts | 349° |
| 2026-05-05 13:35 | 25.25109 | -98.15432 | 33918 ft | 429 kts | 349° |
| 2026-05-05 13:36 | 25.31099 | -98.16034 | 33920 ft | 429 kts | 349° |
| 2026-05-05 13:36 | 25.37036 | -98.16634 | 33921 ft | 429 kts | 349° |
| 2026-05-05 13:37 | 25.42964 | -98.17234 | 33921 ft | 429 kts | 349° |
| 2026-05-05 13:37 | 25.48945 | -98.17844 | 33924 ft | 429 kts | 349° |
| 2026-05-05 13:38 | 25.54912 | -98.18451 | 33919 ft | 429 kts | 349° |
| 2026-05-05 13:38 | 25.60832 | -98.19052 | 33920 ft | 429 kts | 349° |
| 2026-05-05 13:39 | 25.66814 | -98.19656 | 33920 ft | 429 kts | 349° |
| 2026-05-05 13:39 | 25.72766 | -98.20261 | 33920 ft | 429 kts | 349° |
| 2026-05-05 13:40 | 25.78706 | -98.20866 | 33922 ft | 429 kts | 349° |
| 2026-05-05 13:40 | 25.84669 | -98.21476 | 33925 ft | 429 kts | 349° |
| 2026-05-05 13:41 | 25.90632 | -98.22087 | 33924 ft | 429 kts | 349° |
| 2026-05-05 13:41 | 25.96580 | -98.22697 | 33929 ft | 429 kts | 349° |
| 2026-05-05 13:42 | 26.02322 | -98.23999 | 33899 ft | 410 kts | 324° |
| 2026-05-05 13:42 | 26.04440 | -98.26000 | 33910 ft | 399 kts | 303° |
| 2026-05-05 13:42 | 26.05633 | -98.28722 | 33911 ft | 396 kts | 282° |
| 2026-05-05 13:43 | 26.06635 | -98.34809 | 33929 ft | 405 kts | 288° |
| 2026-05-05 13:43 | 26.08964 | -98.40567 | 33927 ft | 414 kts | 295° |
| 2026-05-05 13:44 | 26.10442 | -98.43301 | 33889 ft | 421 kts | 308° |
| 2026-05-05 13:44 | 26.12738 | -98.45355 | 33901 ft | 430 kts | 329° |
| 2026-05-05 13:44 | 26.15642 | -98.46315 | 33895 ft | 435 kts | 350° |
| 2026-05-05 13:44 | 26.18654 | -98.45999 | 33910 ft | 446 kts | 11° |
| 2026-05-05 13:45 | 26.21478 | -98.44437 | 33908 ft | 462 kts | 33° |
| 2026-05-05 13:45 | 26.23699 | -98.41807 | 33913 ft | 476 kts | 54° |
| 2026-05-05 13:45 | 26.25037 | -98.38391 | 33916 ft | 485 kts | 76° |
| 2026-05-05 13:45 | 26.25288 | -98.34664 | 33918 ft | 488 kts | 97° |
| 2026-05-05 13:46 | 26.24439 | -98.31052 | 33921 ft | 486 kts | 118° |
| 2026-05-05 13:46 | 26.22571 | -98.27936 | 33924 ft | 478 kts | 139° |
| 2026-05-05 13:46 | 26.20011 | -98.25781 | 33915 ft | 452 kts | 160° |
| 2026-05-05 13:46 | 26.17107 | -98.24792 | 33911 ft | 417 kts | 183° |
| 2026-05-05 13:47 | 26.14389 | -98.25034 | 33908 ft | 380 kts | 206° |
| 2026-05-05 13:47 | 26.12137 | -98.26359 | 33926 ft | 358 kts | 227° |
| 2026-05-05 13:47 | 26.07950 | -98.29533 | 33918 ft | 380 kts | 204° |
| 2026-05-05 13:48 | 26.05293 | -98.30026 | 33918 ft | 395 kts | 185° |
| 2026-05-05 13:48 | 26.02519 | -98.29572 | 33919 ft | 409 kts | 167° |
| 2026-05-05 13:48 | 25.99923 | -98.28180 | 33920 ft | 421 kts | 149° |
| 2026-05-05 13:48 | 25.97763 | -98.25961 | 33915 ft | 430 kts | 130° |
| 2026-05-05 13:49 | 25.96139 | -98.23209 | 33935 ft | 435 kts | 125° |